Aérodrome :
LOGIN :

S'inscrire | Disclaimer

   EN    FR    IT 

 










Légende :    VFR   VFR Marginal   IFR   IFR Intensif   IFR Très Intensif
Visi : 
Plafond : 
>= 8 km
>= 3000ft
5 à 8 km
1000 à 3000 ft
1500m à 5 km
500 à 1000 ft
800 à 1500m
200 à 500 ft
< 800m
< 200 ft
Symboles :   Orages  Brouillard  Fortes neiges  Fortes précipitations  Vent > 20 kt
SIGMETs :   Divers  Orages  Givrage  Turbulence  Onde Orograph.  Cendres Volcan.







- Altitude de l'aérodrome : 203 ft
- Code IATA : XMJ
- Voir les cartes d'approche


LFBM - Mont-De-Marsan

DERNIER METAR :
  • 221030Z AUTO VRB03KT CAVOK 20/14 Q1020 NOSIG

METARs EXPIRÉS :
  • 221000Z AUTO VRB02KT CAVOK 18/13 Q1020 NOSIG
  • 220930Z AUTO VRB02KT 9999 FEW012 17/13 Q1020 NOSIG
  • 220900Z AUTO 22003KT 150V290 9999 FEW011 16/13 Q1020
  • 220830Z AUTO VRB02KT 9000 SCT006 15/13 Q1020
  • 220800Z AUTO VRB02KT 6000 OVC004 13/13 Q1020 BECMG BKN012
  • 220730Z AUTO VRB01KT 2600 R27/1300U BR VV/// 12/12 Q1020 BECMG 8000 NSW BKN012

TAF TAF LFBM
Valide du 22 à 09h jusqu'au 23 à 09h UTC


220800Z 2209/2309 VRB03KT 6000 BKN005
BECMG 2209/2211 CAVOK
Pas de NOTAMs connus pour ce terrain.



MET'MAP, la Météo Aéronautique d'un coup d'oeil ! - Copyright ORBIFLY Décembre 2007 - Disclaimer

ORBIFLY MET'MAP TEAM :

Programmation & Développement : Alexandra Zaïnal
Conception & Développement : Baudouin d'Aumeries
Co-Programmation & Développement : Marc-Olivier Méhu
Soutien technique & logistique : Manuel Goepfert

Contact : metmap@orbifly.com




SOURCES & CREDITS :

   NOAA